WetterOnline ( https://www.wetteronline.de )

Wetter aktuell Weißenburg

Aktuelles Wetter: Weißenburg (424m)

6-stündlich | Neueste Meldungen
Ortszeit Temperatur Wetter
Mo, 26.09. 20:00 11.5° C leichter Regen
Mo, 26.09. 14:00 13.8° C wolkig
Mo, 26.09. 8:00 9.3° C bedeckt
Mo, 26.09. 2:00 11.1° C bedeckt
So, 25.09. 20:00 12.5° C bewölkt
So, 25.09. 14:00 13.6° C starker Regen
So, 25.09. 8:00 11.2° C bedeckt
So, 25.09. 2:00 12.0° C bewölkt
Ortszeit Temperatur Wetter
Mo, 26.09. 20:30 10.9° C leichter Regen
Mo, 26.09. 20:20 10.9° C leichter Regen
Mo, 26.09. 20:10 11.4° C Sprühregen
Mo, 26.09. 20:00 11.5° C leichter Regen
Mo, 26.09. 19:50 11.5° C leichter Regen
Mo, 26.09. 19:40 11.4° C bedeckt
Mo, 26.09. 19:30 11.7° C wolkig
Mo, 26.09. 19:00 12.1° C wolkig
Mo, 26.09. 18:30 13.7° C bedeckt
Mo, 26.09. 18:00 13.6° C bedeckt
Mo, 26.09. 17:30 14.6° C bewölkt
Ortszeit Relative Feuchte Sichtweite
Mo, 26.09. 20:00 75% 50 km
Mo, 26.09. 14:00 66% 55 km
Mo, 26.09. 8:00 92% 21 km
Mo, 26.09. 2:00 90% 30 km
So, 25.09. 20:00 84% 60 km
So, 25.09. 14:00 85% 4.2 km
So, 25.09. 8:00 94% 10 km
So, 25.09. 2:00 95% 8 km
Ortszeit Relative Feuchte Sichtweite
Mo, 26.09. 20:30 80% 30 km
Mo, 26.09. 20:20 80% -
Mo, 26.09. 20:10 75% -
Mo, 26.09. 20:00 75% 50 km
Mo, 26.09. 19:50 75% -
Mo, 26.09. 19:40 75% -
Mo, 26.09. 19:30 76% 65 km
Mo, 26.09. 19:00 75% >70 km
Mo, 26.09. 18:30 64% >70 km
Mo, 26.09. 18:00 65% >70 km
Mo, 26.09. 17:30 57% >70 km
Ortszeit Niederschlagsmenge Niederschlagsart
Mo, 26.09. 20:00 0.4 l/m2 in 12 Std. Regen
Mo, 26.09. 14:00 0.0 l/m2 in 6 Std. -
Mo, 26.09. 8:00 0.1 l/m2 in 12 Std. Regen
Mo, 26.09. 2:00 0.1 l/m2 in 6 Std. Regen
So, 25.09. 20:00 4 l/m2 in 12 Std. Regen
So, 25.09. 14:00 3 l/m2 in 6 Std. Regen
So, 25.09. 8:00 0.4 l/m2 in 12 Std. -
So, 25.09. 2:00 0.4 l/m2 in 6 Std. Regen
Ortszeit Niederschlagsmenge Niederschlagsart
Mo, 26.09. 20:30 <0.05 l/m2 in 1 Std. -
Mo, 26.09. 20:20 keine Meldung -
Mo, 26.09. 20:10 keine Meldung -
Mo, 26.09. 20:00 <0.05 l/m2 in 1 Std. Regen
Mo, 26.09. 19:50 keine Meldung -
Mo, 26.09. 19:40 keine Meldung -
Mo, 26.09. 19:30 0.0 l/m2 in 1 Std. -
Mo, 26.09. 19:00 0.4 l/m2 in 1 Std. Regen
Mo, 26.09. 18:30 0.0 l/m2 in 1 Std. -
Mo, 26.09. 18:00 0.0 l/m2 in 1 Std. -
Mo, 26.09. 17:30 0.0 l/m2 in 1 Std. -
Ortszeit Stärke Spitze Richtung
km/h Bft. km/h Grad Sektor
Mo, 26.09. 20:00 7 2 25 200° S
Mo, 26.09. 14:00 17 3 22 210° SW
Mo, 26.09. 8:00 4 1 22 190° S
Mo, 26.09. 2:00 7 2 15 290° W
So, 25.09. 20:00 11 2 18 280° W
So, 25.09. 14:00 7 2 22 220° SW
So, 25.09. 8:00 7 2 18 210° SW
So, 25.09. 2:00 11 2 14 190° S
Ortszeit Stärke Spitze Richtung
km/h Bft. km/h Grad Sektor
Mo, 26.09. 20:30 11 2 18 210° SW
Mo, 26.09. 20:20 11 2 - 210° SW
Mo, 26.09. 20:10 11 2 - 220° SW
Mo, 26.09. 20:00 7 2 18 200° S
Mo, 26.09. 19:50 7 2 - 200° S
Mo, 26.09. 19:40 9 2 - 210° SW
Mo, 26.09. 19:30 9 2 15 220° SW
Mo, 26.09. 19:00 11 2 22 210° SW
Mo, 26.09. 18:30 13 3 20 220° SW
Mo, 26.09. 18:00 11 2 22 210° SW
Mo, 26.09. 17:30 13 3 19 230° SW
Ortszeit Untergrenze Bedeckung Gattung
total tief tief mittel hoch
Mo, 26.09. 20:00 1470 m 8/8 2/8 - - -
Mo, 26.09. 14:00 2100 m 6/8 6/8 - - -
Mo, 26.09. 8:00 2700 m 8/8 8/8 - - -
Mo, 26.09. 2:00 810 m 8/8 8/8 - - -
So, 25.09. 20:00 2100 m 7/8 7/8 - - -
So, 25.09. 14:00 30 m 8/8 8/8 - - -
So, 25.09. 8:00 150 m 8/8 8/8 - - -
So, 25.09. 2:00 150 m 7/8 7/8 - - -
Ortszeit Bedeckungsgrad in Achtel und Wolkenuntergrenze
Mo, 26.09. 20:30 1(1260m) 7(2100m) 7(2700m)
Mo, 26.09. 20:20 1(1260m) 7(2100m) 7(2700m)
Mo, 26.09. 20:10 7
Mo, 26.09. 20:00 2(1470m) 8(3000m) 8(3900m)
Mo, 26.09. 19:50 2(1470m) 8(3000m) 8(3900m)
Mo, 26.09. 19:40 8
Mo, 26.09. 19:30 3(1800m) 8(4200m) 8(5400m)
Mo, 26.09. 19:00 3(1320m) 7(4200m) 7(8700m)
Mo, 26.09. 18:30 3(1470m) 8(1800m)
Mo, 26.09. 18:00 5(1500m) 7(2100m) 8(2400m)
Mo, 26.09. 17:30 4(1500m) 7(2100m) 7(8400m)
Ortszeit Luftdruck NN (hPa) Tendenz (hPa in 3 Std.)
Mo, 26.09. 20:00 1005 - 0,3
Mo, 26.09. 14:00 1007 - 1,5
Mo, 26.09. 8:00 1010 - 1,0
Mo, 26.09. 2:00 1012 - 0,5
So, 25.09. 20:00 1011 + 0,3
So, 25.09. 14:00 1012 - 0,4
So, 25.09. 8:00 1013 - 0,2
So, 25.09. 2:00 1013 - 0,2
Ortszeit Luftdruck NN (hPa) Tendenz (hPa in 3 Std.)
Mo, 26.09. 20:30 1005 - 0,4
Mo, 26.09. 20:20 1005 keine Meldung
Mo, 26.09. 20:10 1005 keine Meldung
Mo, 26.09. 20:00 1005 - 0,3
Mo, 26.09. 19:50 1005 keine Meldung
Mo, 26.09. 19:40 1005 keine Meldung
Mo, 26.09. 19:30 1005 - 0,7
Mo, 26.09. 19:00 1005 - 0,8
Mo, 26.09. 18:30 1004 - 1,3
Mo, 26.09. 18:00 1004 - 1,8
Mo, 26.09. 17:30 1004 - 2,0
Ortszeit Schneehöhe (cm)
Mo, 26.09. 20:00 0
Mo, 26.09. 14:00 0
Mo, 26.09. 8:00 0
Mo, 26.09. 2:00 0
So, 25.09. 20:00 0
So, 25.09. 14:00 0
So, 25.09. 8:00 0
So, 25.09. 2:00 0
Ortszeit Schneehöhe (cm)
Mo, 26.09. 20:30 0
Mo, 26.09. 20:20 0
Mo, 26.09. 20:10 0
Mo, 26.09. 20:00 0
Mo, 26.09. 19:50 0
Mo, 26.09. 19:40 0
Mo, 26.09. 19:30 0
Mo, 26.09. 19:00 0
Mo, 26.09. 18:30 0
Mo, 26.09. 18:00 0
Mo, 26.09. 17:30 0
Link zu dieser Seite / Seite empfehlen

Das Wetter in ...